Time;durP1;ratioP1;P1;durP2;ratioP2;P2;SDS_P1;SDS_P2;PMS_P1;PMS_P2;Temp;Humidity;BMP_temperature;BMP_pressure;BME280_temperature;BME280_humidity;BME280_pressure;Samples;Min_cycle;Max_cycle;Signal;HPM_P1;HPM_P2
2023/08/22 00:01:27;;;;;;;;;9.00;9.00;;;;;18.53;70.96;100314.19;4975596;28;8857;-85
2023/08/22 00:03:56;;;;;;;;;9.40;8.40;;;;;18.47;71.17;100306.78;4976060;28;8821;-85
2023/08/22 00:06:25;;;;;;;;;9.20;7.40;;;;;18.45;71.10;100321.44;4979176;28;8874;-85
2023/08/22 00:08:52;;;;;;;;;5.20;5.20;;;;;18.43;71.36;100331.53;4979687;28;8832;-85
2023/08/22 00:11:20;;;;;;;;;9.00;7.80;;;;;18.40;71.41;100332.72;4979662;28;8844;-85
2023/08/22 00:13:47;;;;;;;;;9.00;8.20;;;;;18.39;71.15;100328.31;4979006;28;8844;-85
2023/08/22 00:16:15;;;;;;;;;10.40;9.20;;;;;18.38;71.37;100321.22;4979421;28;8868;-84
2023/08/22 00:18:42;;;;;;;;;9.40;7.00;;;;;18.37;71.26;100321.41;4979052;28;8821;-85
2023/08/22 00:21:10;;;;;;;;;9.20;9.00;;;;;18.37;70.93;100322.22;4978978;28;8849;-85
2023/08/22 00:23:39;;;;;;;;;4.00;4.00;;;;;18.38;70.93;100323.09;4979111;28;8840;-85
2023/08/22 00:26:06;;;;;;;;;6.80;6.80;;;;;18.37;71.03;100319.53;4979357;28;8836;-85
2023/08/22 00:28:34;;;;;;;;;6.00;6.00;;;;;18.36;71.25;100323.22;4979191;28;8848;-85
2023/08/22 00:31:01;;;;;;;;;6.60;6.00;;;;;18.37;71.21;100324.09;4979475;28;8872;-85
2023/08/22 00:33:29;;;;;;;;;6.00;6.00;;;;;18.35;71.54;100326.09;4979413;28;8847;-85
2023/08/22 00:35:57;;;;;;;;;9.00;8.60;;;;;18.32;71.09;100327.28;4979550;28;9813;-85
2023/08/22 00:38:25;;;;;;;;;7.40;7.40;;;;;18.30;71.47;100323.88;4978425;28;8892;-86
2023/08/22 00:40:52;;;;;;;;;8.20;6.80;;;;;18.27;71.59;100318.78;4978686;28;8848;-86
2023/08/22 00:43:20;;;;;;;;;6.00;6.00;;;;;18.23;71.16;100311.19;4978933;28;8828;-86
2023/08/22 00:45:48;;;;;;;;;6.80;6.40;;;;;18.17;71.78;100307.28;4978675;28;9506;-86
2023/08/22 00:48:15;;;;;;;;;9.20;7.40;;;;;18.10;71.44;100306.25;4978304;28;8871;-86
2023/08/22 00:50:43;;;;;;;;;7.40;7.40;;;;;18.04;71.87;100314.09;4978746;28;8828;-86
2023/08/22 00:53:11;;;;;;;;;6.20;4.80;;;;;17.96;71.60;100304.13;4978578;28;8871;-86
2023/08/22 00:55:38;;;;;;;;;6.00;5.60;;;;;17.89;71.72;100305.78;4978135;28;8859;-86
2023/08/22 00:58:06;;;;;;;;;6.40;6.40;;;;;17.86;72.35;100298.03;4978470;28;8836;-86
2023/08/22 01:00:35;;;;;;;;;7.00;6.20;;;;;17.83;71.85;100298.31;4978456;28;8865;-86
2023/08/22 01:03:03;;;;;;;;;7.80;6.80;;;;;17.82;72.42;100295.78;4978431;28;8851;-86
2023/08/22 01:05:31;;;;;;;;;4.00;3.40;;;;;17.79;72.06;100296.97;4978107;28;8856;-86
2023/08/22 01:07:58;;;;;;;;;7.00;6.00;;;;;17.79;72.67;100291.59;4978685;28;9522;-86
2023/08/22 01:10:27;;;;;;;;;7.80;7.80;;;;;17.78;72.07;100291.72;4977921;28;8840;-86
2023/08/22 01:12:55;;;;;;;;;6.20;6.20;;;;;17.76;71.80;100289.19;4978304;28;8848;-86
2023/08/22 01:15:24;;;;;;;;;9.00;8.20;;;;;17.76;72.21;100275.72;4977108;28;8875;-86
2023/08/22 01:17:52;;;;;;;;;7.00;7.00;;;;;17.74;72.37;100285.81;4978099;28;8837;-86
2023/08/22 01:20:20;;;;;;;;;8.20;8.20;;;;;17.71;72.54;100278.06;4977603;28;8840;-86
2023/08/22 01:22:48;;;;;;;;;9.00;9.00;;;;;17.67;71.86;100281.19;4978109;28;9553;-86
2023/08/22 01:25:15;;;;;;;;;4.00;3.80;;;;;17.62;72.22;100288.94;4977987;28;8875;-86
2023/08/22 01:27:43;;;;;;;;;9.00;7.00;;;;;17.57;72.69;100284.03;4977046;28;8841;-86
2023/08/22 01:30:11;;;;;;;;;6.20;6.00;;;;;17.55;72.78;100277.09;4976951;28;8832;-86
2023/08/22 01:32:39;;;;;;;;;7.80;7.40;;;;;17.52;72.49;100274.72;4977125;28;8899;-86
2023/08/22 01:35:06;;;;;;;;;7.00;7.00;;;;;17.50;72.42;100272.19;4977427;28;8860;-86
2023/08/22 01:37:34;;;;;;;;;7.00;7.00;;;;;17.47;72.39;100280.56;4977139;28;8860;-86
2023/08/22 01:40:04;;;;;;;;;5.60;5.60;;;;;17.43;72.96;100281.03;4976955;28;8851;-86
2023/08/22 01:42:32;;;;;;;;;4.00;1.00;;;;;17.40;73.01;100273.28;4977679;28;8860;-86
2023/08/22 01:44:59;;;;;;;;;9.40;8.60;;;;;17.37;72.71;100277.13;4977662;28;8848;-86
2023/08/22 01:47:27;;;;;;;;;7.20;6.80;;;;;17.36;73.04;100285.31;4977736;28;9716;-86
2023/08/22 01:49:55;;;;;;;;;6.00;5.80;;;;;17.37;73.06;100279.81;4977452;28;8963;-86
2023/08/22 01:52:22;;;;;;;;;7.40;7.20;;;;;17.38;72.83;100273.44;4977731;28;8855;-86
2023/08/22 01:54:50;;;;;;;;;5.60;5.60;;;;;17.39;73.00;100272.44;4977250;28;8852;-86
2023/08/22 01:57:18;;;;;;;;;5.80;5.60;;;;;17.42;72.69;100274.84;4977888;28;8840;-85
2023/08/22 01:59:45;;;;;;;;;7.40;6.20;;;;;17.44;72.56;100267.44;4977498;28;8860;-85
2023/08/22 02:02:13;;;;;;;;;9.00;7.00;;;;;17.46;72.60;100267.28;4977837;28;8833;-85
2023/08/22 02:04:40;;;;;;;;;10.40;10.00;;;;;17.48;72.30;100267.97;4959463;28;8859;-85
2023/08/22 02:07:08;;;;;;;;;6.80;6.60;;;;;17.49;72.64;100267.81;4958177;28;8843;-84
2023/08/22 02:09:36;;;;;;;;;9.20;7.00;;;;;17.51;72.29;100259.56;4973021;28;8870;-84
2023/08/22 02:12:04;;;;;;;;;8.20;7.00;;;;;17.55;72.52;100260.94;4978008;28;8879;-84
2023/08/22 02:14:31;;;;;;;;;6.60;6.40;;;;;17.57;72.51;100248.16;4977199;28;8939;-84
2023/08/22 02:16:59;;;;;;;;;7.00;7.00;;;;;17.60;72.38;100258.63;4977831;28;8841;-84
2023/08/22 02:19:26;;;;;;;;;7.00;7.00;;;;;17.61;71.93;100269.22;4976557;28;8809;-84
2023/08/22 02:21:54;;;;;;;;;7.00;7.00;;;;;17.59;72.22;100265.84;4977074;28;8825;-84
2023/08/22 02:24:21;;;;;;;;;7.00;7.00;;;;;17.56;72.35;100263.50;4976961;28;8875;-84
2023/08/22 02:26:49;;;;;;;;;7.00;7.00;;;;;17.54;71.92;100252.00;4977105;28;8844;-84
2023/08/22 02:29:16;;;;;;;;;6.20;6.20;;;;;17.52;72.26;100255.84;4976391;28;8833;-84
2023/08/22 02:31:44;;;;;;;;;6.40;6.40;;;;;17.50;72.59;100264.13;4977636;28;8831;-85
2023/08/22 02:34:11;;;;;;;;;7.00;7.00;;;;;17.48;72.43;100259.88;4977420;28;9522;-84
2023/08/22 02:36:39;;;;;;;;;6.40;6.40;;;;;17.45;72.66;100260.22;4976623;28;8849;-84
2023/08/22 02:39:07;;;;;;;;;4.80;4.40;;;;;17.40;72.56;100255.28;4977197;28;8813;-85
2023/08/22 02:41:35;;;;;;;;;5.80;5.40;;;;;17.35;72.93;100254.88;4977806;28;9495;-84
2023/08/22 02:44:03;;;;;;;;;6.00;4.40;;;;;17.33;72.78;100256.03;4977493;28;8828;-84
2023/08/22 02:46:30;;;;;;;;;6.80;6.80;;;;;17.29;73.00;100258.19;4977529;28;8860;-84
2023/08/22 02:48:58;;;;;;;;;7.80;6.00;;;;;17.26;72.87;100246.91;4976066;28;8817;-84
2023/08/22 02:51:26;;;;;;;;;6.20;5.80;;;;;17.20;72.66;100245.69;4976376;28;8837;-84
2023/08/22 02:53:53;;;;;;;;;6.00;6.00;;;;;17.18;73.01;100257.59;4976520;28;8851;-85
2023/08/22 02:56:21;;;;;;;;;8.20;6.40;;;;;17.17;73.11;100256.75;4977172;28;8844;-84
2023/08/22 02:58:49;;;;;;;;;6.00;6.00;;;;;17.19;72.71;100253.91;4976197;28;8883;-84
2023/08/22 03:01:17;;;;;;;;;9.00;7.40;;;;;17.19;73.25;100244.00;4976247;28;8837;-84
2023/08/22 03:03:49;;;;;;;;;8.20;7.80;;;;;17.21;72.36;100251.91;4976607;28;8840;-84
2023/08/22 03:06:17;;;;;;;;;6.40;6.40;;;;;17.26;72.78;100260.34;4976252;28;8840;-84
2023/08/22 03:08:44;;;;;;;;;8.40;6.80;;;;;17.27;73.17;100260.22;4975828;28;8820;-84
2023/08/22 03:11:12;;;;;;;;;9.20;7.00;;;;;17.29;72.96;100255.50;4976184;28;8891;-84
2023/08/22 03:13:39;;;;;;;;;8.20;7.00;;;;;17.31;72.55;100258.88;4976135;28;9487;-84
2023/08/22 03:16:07;;;;;;;;;8.20;7.00;;;;;17.32;72.53;100255.19;4975835;28;8829;-84
2023/08/22 03:18:35;;;;;;;;;6.00;6.00;;;;;17.34;72.23;100253.19;4976303;28;8801;-85
2023/08/22 03:21:02;;;;;;;;;3.80;3.80;;;;;17.35;72.65;100254.88;4975739;28;8837;-84
2023/08/22 03:23:30;;;;;;;;;10.80;9.60;;;;;17.36;72.92;100259.28;4975591;28;8867;-84
2023/08/22 03:25:58;;;;;;;;;9.00;9.00;;;;;17.36;72.26;100256.59;4975538;28;8833;-85
2023/08/22 03:28:26;;;;;;;;;9.80;7.00;;;;;17.36;72.28;100261.09;4975855;28;8825;-85
2023/08/22 03:30:53;;;;;;;;;7.00;6.80;;;;;17.34;72.42;100263.09;4976151;28;8864;-84
2023/08/22 03:33:21;;;;;;;;;9.20;9.00;;;;;17.32;72.35;100252.50;4975784;28;8853;-85
2023/08/22 03:35:49;;;;;;;;;9.00;9.00;;;;;17.32;72.89;100271.34;4975266;28;8821;-85
2023/08/22 03:38:16;;;;;;;;;4.00;4.00;;;;;17.30;72.64;100265.28;4976217;28;8832;-85
2023/08/22 03:40:44;;;;;;;;;6.80;6.80;;;;;17.29;72.39;100265.41;4981711;28;8840;-85
2023/08/22 03:43:12;;;;;;;;;6.60;6.60;;;;;17.28;73.20;100261.91;4982597;28;8841;-85
2023/08/22 03:45:39;;;;;;;;;7.80;7.80;;;;;17.27;72.42;100259.34;4981596;28;8851;-85
2023/08/22 03:48:07;;;;;;;;;9.20;7.00;;;;;17.25;72.65;100255.97;4982080;28;8840;-84
2023/08/22 03:50:35;;;;;;;;;7.00;6.00;;;;;17.23;72.71;100253.44;4981898;28;9542;-84
2023/08/22 03:53:03;;;;;;;;;5.20;5.20;;;;;17.21;73.16;100255.44;4982028;28;8840;-85
2023/08/22 03:55:30;;;;;;;;;6.40;6.40;;;;;17.21;72.56;100251.91;4981766;28;8835;-85
2023/08/22 03:57:58;;;;;;;;;7.00;6.20;;;;;17.22;73.37;100257.13;4982038;28;8829;-85
2023/08/22 04:00:25;;;;;;;;;4.00;3.80;;;;;17.20;72.89;100259.16;4981955;28;8907;-84
2023/08/22 04:02:53;;;;;;;;;8.20;8.20;;;;;17.19;72.83;100254.75;4981187;28;8872;-85
2023/08/22 04:05:21;;;;;;;;;3.40;3.40;;;;;17.17;73.23;100240.59;4980862;28;8878;-85
2023/08/22 04:07:48;;;;;;;;;6.00;6.00;;;;;17.15;72.71;100247.16;4981049;28;8867;-85
2023/08/22 04:10:16;;;;;;;;;7.20;6.80;;;;;17.15;73.08;100250.69;4980630;28;8852;-85
2023/08/22 04:12:43;;;;;;;;;7.00;6.00;;;;;17.11;72.85;100252.00;4981320;28;8856;-84
2023/08/22 04:15:11;;;;;;;;;7.00;6.40;;;;;17.04;73.03;100245.56;4981208;28;8869;-85
2023/08/22 04:17:41;;;;;;;;;6.20;6.20;;;;;16.99;73.01;100242.47;4981505;28;9580;-85
2023/08/22 04:20:09;;;;;;;;;9.40;9.00;;;;;16.96;73.02;100244.63;4982093;28;8867;-85
2023/08/22 04:22:37;;;;;;;;;6.40;6.40;;;;;16.94;73.56;100239.41;4981464;28;8871;-85
2023/08/22 04:25:05;;;;;;;;;7.80;7.40;;;;;16.92;73.02;100243.22;4981608;28;8849;-85
2023/08/22 04:27:33;;;;;;;;;9.80;9.80;;;;;16.88;73.75;100234.66;4981818;28;8894;-84
2023/08/22 04:30:02;;;;;;;;;8.60;7.00;;;;;16.87;73.47;100237.50;4981805;28;8844;-85
2023/08/22 04:32:29;;;;;;;;;7.00;7.00;;;;;16.86;73.70;100241.19;4981738;28;9503;-85
2023/08/22 04:34:57;;;;;;;;;7.40;7.40;;;;;16.85;73.51;100242.19;4981727;28;8911;-85
2023/08/22 04:37:25;;;;;;;;;6.00;4.40;;;;;16.84;73.38;100246.72;4981643;28;8859;-84
2023/08/22 04:39:52;;;;;;;;;6.80;6.80;;;;;16.84;73.39;100238.66;4981379;28;8859;-85
2023/08/22 04:42:20;;;;;;;;;8.60;7.00;;;;;16.86;73.66;100244.72;4981054;28;8840;-85
2023/08/22 04:44:47;;;;;;;;;9.40;6.40;;;;;16.90;73.17;100242.56;4981227;28;8836;-85
2023/08/22 04:47:15;;;;;;;;;8.60;8.60;;;;;16.94;73.44;100247.47;4980840;28;8852;-85
2023/08/22 04:49:43;;;;;;;;;8.00;6.80;;;;;16.98;72.68;100246.19;4980654;28;8900;-85
2023/08/22 04:52:10;;;;;;;;;7.80;7.80;;;;;17.04;72.75;100250.09;4978361;28;8860;-85
2023/08/22 04:54:38;;;;;;;;;7.60;7.00;;;;;17.07;73.00;100247.94;4977763;28;8836;-85
2023/08/22 04:57:05;;;;;;;;;4.00;4.00;;;;;17.10;72.93;100247.59;4978221;28;8817;-85
2023/08/22 04:59:33;;;;;;;;;7.20;6.40;;;;;17.13;73.04;100247.31;4978100;28;8864;-85
2023/08/22 05:02:00;;;;;;;;;9.40;7.80;;;;;17.15;72.87;100241.78;4977858;28;9537;-85
2023/08/22 05:04:28;;;;;;;;;7.00;7.00;;;;;17.18;72.84;100242.31;4978228;28;8836;-85
2023/08/22 05:06:56;;;;;;;;;8.20;6.60;;;;;17.21;73.00;100251.91;4977894;28;8963;-85
2023/08/22 05:09:24;;;;;;;;;11.60;10.00;;;;;17.25;72.66;100247.91;4977529;28;8840;-85
2023/08/22 05:11:51;;;;;;;;;9.40;7.80;;;;;17.28;72.83;100253.81;4976705;28;8865;-85
2023/08/22 05:14:19;;;;;;;;;9.60;9.00;;;;;17.33;72.50;100250.66;4976842;28;8844;-84
2023/08/22 05:16:47;;;;;;;;;9.80;9.40;;;;;17.40;72.28;100257.97;4976494;28;8852;-85
2023/08/22 05:19:17;;;;;;;;;10.80;9.80;;;;;17.48;71.84;100244.56;4977637;28;8848;-85
2023/08/22 05:21:45;;;;;;;;;5.20;4.00;;;;;17.54;71.67;100245.78;4976824;28;9515;-85
2023/08/22 05:24:13;;;;;;;;;8.20;7.00;;;;;17.64;72.07;100247.38;4976114;28;9176;-85
2023/08/22 05:26:40;;;;;;;;;8.60;7.00;;;;;17.72;72.00;100242.03;4976212;28;8860;-85
2023/08/22 05:29:08;;;;;;;;;6.00;6.00;;;;;17.76;71.94;100238.00;4976626;28;8856;-85
2023/08/22 05:31:35;;;;;;;;;6.00;6.00;;;;;17.78;71.36;100230.59;4976141;28;8967;-85
2023/08/22 05:34:03;;;;;;;;;6.00;4.80;;;;;17.80;71.87;100244.78;4975662;28;8955;-85
2023/08/22 05:36:31;;;;;;;;;8.60;6.80;;;;;17.82;71.83;100248.13;4975409;28;8874;-85
2023/08/22 05:38:59;;;;;;;;;6.00;6.00;;;;;17.83;71.54;100244.44;4975537;28;9543;-85
2023/08/22 05:41:26;;;;;;;;;3.60;3.40;;;;;17.89;71.61;100253.72;4975457;28;8956;-85
2023/08/22 05:43:54;;;;;;;;;9.00;9.00;;;;;17.93;71.42;100250.53;4975178;28;8895;-85
2023/08/22 05:46:21;;;;;;;;;7.00;7.00;;;;;17.99;71.20;100254.47;4975288;28;8891;-85
2023/08/22 05:48:49;;;;;;;;;12.40;9.60;;;;;18.06;70.84;100247.41;4975635;28;8975;-85
2023/08/22 05:51:17;;;;;;;;;8.60;7.40;;;;;18.11;71.48;100245.94;4975504;28;8829;-85
2023/08/22 05:53:44;;;;;;;;;7.80;7.00;;;;;18.17;71.05;100253.38;4975395;28;8837;-85
2023/08/22 05:56:12;;;;;;;;;7.40;7.40;;;;;18.23;70.62;100257.25;4974908;28;8868;-85
2023/08/22 05:58:39;;;;;;;;;9.00;9.00;;;;;18.26;70.92;100255.06;4974742;28;8845;-85
2023/08/22 06:01:07;;;;;;;;;7.80;7.80;;;;;18.29;70.82;100262.84;4977310;28;8855;-85
2023/08/22 06:03:35;;;;;;;;;7.40;6.60;;;;;18.30;70.83;100253.75;4975483;28;8849;-85
2023/08/22 06:06:02;;;;;;;;;8.80;7.40;;;;;18.32;70.83;100256.31;4975421;28;8836;-85
2023/08/22 06:08:30;;;;;;;;;9.60;9.00;;;;;18.36;71.04;100255.00;4975682;28;8852;-85
2023/08/22 06:10:58;;;;;;;;;8.60;8.20;;;;;18.40;70.52;100254.50;4974840;28;8856;-85
2023/08/22 06:13:25;;;;;;;;;9.00;9.00;;;;;18.45;70.86;100260.22;4973815;28;8858;-85
2023/08/22 06:15:53;;;;;;;;;8.60;6.80;;;;;18.54;70.71;100256.56;4974084;28;8840;-84
2023/08/22 06:18:21;;;;;;;;;10.40;10.40;;;;;18.64;70.77;100257.25;4974778;28;8990;-85
2023/08/22 06:20:49;;;;;;;;;3.60;3.60;;;;;18.70;69.93;100261.97;4975090;28;8852;-85
2023/08/22 06:23:16;;;;;;;;;9.20;8.60;;;;;18.76;70.41;100263.16;4973966;28;9539;-85
2023/08/22 06:25:44;;;;;;;;;5.20;5.20;;;;;18.78;70.16;100262.00;4974559;28;8871;-85
2023/08/22 06:28:12;;;;;;;;;7.00;7.00;;;;;18.80;70.31;100257.28;4974472;28;9542;-85
2023/08/22 06:30:39;;;;;;;;;7.00;7.00;;;;;18.85;70.18;100265.72;4973876;28;9511;-85
2023/08/22 06:33:07;;;;;;;;;8.60;8.20;;;;;18.88;69.84;100265.38;4973648;28;9273;-85
2023/08/22 06:35:34;;;;;;;;;7.00;7.00;;;;;18.99;70.06;100267.75;4973858;28;8930;-85
2023/08/22 06:38:03;;;;;;;;;9.20;8.00;;;;;19.15;69.53;100264.22;4974630;28;8844;-85
2023/08/22 06:40:30;;;;;;;;;9.80;9.80;;;;;19.31;68.89;100257.00;4974393;28;8837;-85
2023/08/22 06:42:58;;;;;;;;;10.40;9.20;;;;;19.49;69.14;100257.63;4974444;28;8840;-85
2023/08/22 06:45:26;;;;;;;;;10.60;10.20;;;;;19.62;68.72;100252.56;4974341;28;8844;-85
2023/08/22 06:47:53;;;;;;;;;10.00;9.20;;;;;19.72;68.68;100250.50;4974604;28;8860;-85
2023/08/22 06:50:22;;;;;;;;;10.40;9.60;;;;;19.84;68.18;100249.13;4973881;28;8853;-85
2023/08/22 06:52:49;;;;;;;;;8.40;7.40;;;;;19.90;67.94;100250.28;4973833;28;8848;-85
2023/08/22 06:55:17;;;;;;;;;10.40;10.40;;;;;20.01;68.37;100258.88;4973218;28;8851;-85
2023/08/22 06:57:45;;;;;;;;;8.40;8.40;;;;;20.13;67.72;100270.19;4973489;28;8864;-85
2023/08/22 07:00:15;;;;;;;;;8.40;8.20;;;;;20.24;67.56;100261.72;4973461;28;9277;-85
2023/08/22 07:02:42;;;;;;;;;10.80;10.40;;;;;20.32;67.45;100269.78;4973341;28;8872;-85
2023/08/22 07:05:10;;;;;;;;;7.40;7.40;;;;;20.44;67.61;100257.53;4973689;28;8878;-85
2023/08/22 07:07:38;;;;;;;;;7.80;7.40;;;;;20.61;66.69;100268.09;4973624;28;9584;-85
2023/08/22 07:10:08;;;;;;;;;6.60;6.60;;;;;20.77;66.63;100270.69;4973507;28;8852;-85
2023/08/22 07:12:35;;;;;;;;;10.60;8.80;;;;;20.95;66.58;100274.03;4973128;28;8979;-85
2023/08/22 07:15:04;;;;;;;;;10.00;9.20;;;;;21.12;65.87;100270.16;4972604;28;9542;-85
2023/08/22 07:17:31;;;;;;;;;11.00;10.20;;;;;21.31;65.92;100270.50;4973125;28;8845;-85
2023/08/22 07:19:59;;;;;;;;;6.80;6.80;;;;;21.54;65.60;100275.88;4971405;28;8946;-85
2023/08/22 07:22:28;;;;;;;;;9.80;9.20;;;;;21.72;64.88;100265.59;4971661;28;8983;-85
2023/08/22 07:24:55;;;;;;;;;8.00;8.00;;;;;21.86;65.04;100264.75;4971507;28;8875;-85
2023/08/22 07:27:23;;;;;;;;;11.40;10.80;;;;;22.00;64.83;100262.03;4971206;28;9596;-85
2023/08/22 07:29:51;;;;;;;;;9.20;9.00;;;;;22.17;64.09;100263.53;4972225;28;8864;-85
2023/08/22 07:32:20;;;;;;;;;8.80;8.20;;;;;22.37;63.93;100266.50;4973535;28;8845;-85
2023/08/22 07:34:48;;;;;;;;;8.80;8.00;;;;;22.53;64.15;100260.91;4972307;28;8837;-85
2023/08/22 07:37:16;;;;;;;;;7.20;6.00;;;;;22.66;63.33;100266.47;4973245;28;8942;-85
2023/08/22 07:39:44;;;;;;;;;10.80;9.60;;;;;22.79;63.50;100263.91;4972541;28;8852;-85
2023/08/22 07:42:12;;;;;;;;;10.00;10.00;;;;;22.93;63.63;100269.28;4972653;28;8855;-85
2023/08/22 07:44:40;;;;;;;;;8.40;6.00;;;;;23.04;63.33;100267.94;4972347;28;8862;-85
2023/08/22 07:47:07;;;;;;;;;8.00;8.00;;;;;23.14;63.36;100269.31;4970750;28;8999;-85
2023/08/22 07:49:35;;;;;;;;;8.00;8.00;;;;;23.20;63.27;100274.00;4969817;28;8983;-85
2023/08/22 07:52:03;;;;;;;;;9.20;9.20;;;;;23.23;63.10;100267.34;4970115;28;8856;-85
2023/08/22 07:54:30;;;;;;;;;9.00;8.60;;;;;23.26;63.50;100267.78;4971041;28;8848;-85
2023/08/22 07:56:58;;;;;;;;;9.20;8.80;;;;;23.25;63.36;100266.13;4971066;28;8860;-85
2023/08/22 07:59:44;;;;;;;;;5.80;5.80;;;;;23.27;63.25;100268.63;4971410;28;8853;-85
2023/08/22 08:02:12;;;;;;;;;9.20;8.80;;;;;23.36;63.60;100267.47;4970753;28;8832;-85
2023/08/22 08:04:40;;;;;;;;;8.80;8.20;;;;;23.47;63.18;100275.06;4972368;28;8849;-85
2023/08/22 08:07:08;;;;;;;;;5.40;5.40;;;;;23.57;63.03;100270.13;4973195;28;8852;-85
2023/08/22 08:09:35;;;;;;;;;10.00;10.00;;;;;23.70;62.65;100275.69;4973226;28;8978;-85
2023/08/22 08:12:03;;;;;;;;;10.40;9.60;;;;;23.79;62.94;100278.06;4972995;28;9357;-85
2023/08/22 08:14:31;;;;;;;;;9.00;8.20;;;;;23.83;63.12;100283.94;4973153;28;8845;-85
2023/08/22 08:16:59;;;;;;;;;7.00;5.60;;;;;23.86;62.89;100286.28;4973141;28;8866;-85
2023/08/22 08:19:27;;;;;;;;;5.20;5.20;;;;;23.94;62.52;100284.28;4972843;28;8972;-85
2023/08/22 08:21:54;;;;;;;;;7.40;7.40;;;;;24.07;62.34;100281.66;4973044;28;9195;-85
2023/08/22 08:24:23;;;;;;;;;6.80;5.60;;;;;24.19;61.80;100290.09;4972657;28;9250;-85
2023/08/22 08:26:51;;;;;;;;;5.40;5.40;;;;;24.30;61.65;100286.78;4976070;28;8860;-85
2023/08/22 08:29:19;;;;;;;;;7.20;6.00;;;;;24.37;62.02;100282.22;4975086;28;8883;-85
2023/08/22 08:31:47;;;;;;;;;6.00;6.00;;;;;24.49;61.11;100294.22;4975732;28;8837;-85
2023/08/22 08:34:15;;;;;;;;;6.60;5.60;;;;;24.61;60.83;100298.06;4975350;28;8864;-85
2023/08/22 08:36:43;;;;;;;;;5.00;5.00;;;;;24.70;61.18;100294.97;4976118;28;8853;-85
2023/08/22 08:39:10;;;;;;;;;3.40;3.40;;;;;24.80;60.86;100294.59;4976518;28;8856;-85
2023/08/22 08:41:38;;;;;;;;;5.20;4.20;;;;;24.88;60.74;100283.50;4976292;28;8848;-85
2023/08/22 08:44:06;;;;;;;;;3.00;3.00;;;;;24.99;60.65;100288.34;4976685;28;8844;-85
2023/08/22 08:46:34;;;;;;;;;5.00;5.00;;;;;25.10;60.28;100295.94;4976899;28;8848;-85
2023/08/22 08:49:02;;;;;;;;;6.00;6.00;;;;;25.15;60.19;100290.69;4976553;28;8870;-85
2023/08/22 08:51:30;;;;;;;;;5.00;5.00;;;;;25.19;60.02;100291.97;4975036;28;9590;-85
2023/08/22 08:53:58;;;;;;;;;6.40;5.60;;;;;25.28;59.93;100296.22;4976110;28;8859;-85
2023/08/22 08:56:25;;;;;;;;;5.00;5.00;;;;;25.34;60.19;100290.75;4975545;28;8887;-85
2023/08/22 08:58:53;;;;;;;;;8.00;6.00;;;;;25.44;59.97;100290.34;4975729;28;8859;-85
2023/08/22 09:01:21;;;;;;;;;5.00;5.00;;;;;25.55;59.27;100295.19;4976126;28;8860;-85
2023/08/22 09:03:49;;;;;;;;;6.00;5.60;;;;;25.67;58.97;100287.00;4975897;28;8845;-85
2023/08/22 09:06:16;;;;;;;;;5.00;3.80;;;;;25.83;58.80;100286.59;4976299;28;8852;-85
2023/08/22 09:08:44;;;;;;;;;3.80;3.80;;;;;26.05;58.64;100285.28;4976242;28;8930;-85
2023/08/22 09:11:12;;;;;;;;;5.20;5.00;;;;;26.27;57.85;100286.72;4975697;28;8970;-86
2023/08/22 09:13:40;;;;;;;;;2.60;2.60;;;;;26.58;57.70;100289.59;4974747;28;8860;-85
2023/08/22 09:16:22;;;;;;;;;5.60;5.20;;;;;26.84;56.88;100291.38;4973950;28;8853;-85
2023/08/22 09:18:50;;;;;;;;;5.20;5.00;;;;;26.96;56.88;100290.47;4973625;28;8950;-85
2023/08/22 09:21:18;;;;;;;;;5.20;4.20;;;;;27.13;56.50;100290.78;4973743;28;8864;-85
2023/08/22 09:23:49;;;;;;;;;6.40;6.40;;;;;27.25;56.04;100289.88;4973185;28;8939;-85
2023/08/22 09:26:17;;;;;;;;;6.00;5.80;;;;;27.35;56.19;100301.22;4973002;28;8840;-86
2023/08/22 09:28:45;;;;;;;;;6.60;6.20;;;;;27.42;56.17;100299.25;4974206;28;8843;-86
2023/08/22 09:31:12;;;;;;;;;8.40;8.20;;;;;27.42;55.87;100301.16;4974311;28;8860;-85
2023/08/22 09:33:40;;;;;;;;;7.40;4.00;;;;;27.41;56.09;100288.53;4974501;28;8950;-85
2023/08/22 09:36:08;;;;;;;;;6.80;6.80;;;;;27.39;56.46;100294.22;4973120;28;8844;-86
2023/08/22 09:38:35;;;;;;;;;6.40;6.00;;;;;27.35;56.37;100293.00;4974136;28;8866;-85
2023/08/22 09:41:03;;;;;;;;;9.80;8.80;;;;;27.36;56.25;100286.47;4974008;28;8982;-85
2023/08/22 09:43:31;;;;;;;;;11.40;10.40;;;;;27.51;56.21;100295.19;4973705;28;8852;-85
2023/08/22 09:45:58;;;;;;;;;10.20;9.80;;;;;27.70;55.96;100288.69;4973661;28;8860;-85
2023/08/22 09:48:30;;;;;;;;;12.00;10.20;;;;;27.79;55.82;100286.56;4974910;28;8856;-85
2023/08/22 09:51:01;;;;;;;;;11.20;9.00;;;;;27.79;55.97;100287.41;4973982;28;8857;-85
2023/08/22 09:53:28;;;;;;;;;7.00;7.00;;;;;27.74;56.08;100284.47;4975017;28;8860;-85
2023/08/22 09:55:56;;;;;;;;;8.00;8.00;;;;;27.73;55.91;100295.63;4973297;28;8995;-85
2023/08/22 09:58:25;;;;;;;;;9.60;9.20;;;;;27.81;56.25;100288.03;4974023;28;8844;-85
2023/08/22 10:00:54;;;;;;;;;6.60;6.60;;;;;27.98;55.57;100277.34;4973335;28;8849;-85
2023/08/22 10:03:21;;;;;;;;;9.20;9.00;;;;;28.69;54.13;100283.91;4972601;28;8857;-85
2023/08/22 10:05:49;;;;;;;;;9.00;9.00;;;;;29.56;52.95;100274.03;4973416;28;8958;-86
2023/08/22 10:08:17;;;;;;;;;4.60;4.00;;;;;30.37;50.86;100271.31;4973823;28;8836;-86
2023/08/22 10:10:47;;;;;;;;;10.00;9.00;;;;;30.71;50.49;100271.25;4974688;28;8852;-86
2023/08/22 10:13:17;;;;;;;;;9.00;8.60;;;;;30.66;50.84;100278.56;4973094;28;8903;-86
2023/08/22 10:15:45;;;;;;;;;8.20;8.20;;;;;30.85;50.83;100272.63;4973277;28;8861;-86
2023/08/22 10:18:13;;;;;;;;;10.20;10.20;;;;;30.90;50.59;100259.81;4973933;28;8951;-86
2023/08/22 10:20:41;;;;;;;;;10.20;10.00;;;;;31.17;50.11;100266.44;4974224;28;8852;-86
2023/08/22 10:23:09;;;;;;;;;10.60;10.60;;;;;31.02;50.56;100270.78;4974785;28;8852;-86
2023/08/22 10:25:37;;;;;;;;;11.80;11.00;;;;;30.47;51.42;100274.28;4974163;28;8932;-86
2023/08/22 10:28:04;;;;;;;;;10.00;10.00;;;;;30.04;52.21;100269.16;4974290;28;8987;-86
2023/08/22 10:30:33;;;;;;;;;11.40;10.40;;;;;29.80;53.19;100272.97;4973443;28;8849;-85
2023/08/22 10:33:01;;;;;;;;;10.00;10.00;;;;;29.67;53.13;100273.22;4973979;28;8833;-85
2023/08/22 10:35:29;;;;;;;;;11.20;11.00;;;;;29.69;52.60;100271.06;4973347;28;8848;-86
2023/08/22 10:37:57;;;;;;;;;9.60;9.60;;;;;29.48;53.51;100260.63;4973850;28;8904;-86
2023/08/22 10:40:25;;;;;;;;;14.40;13.20;;;;;29.28;53.75;100268.31;4973901;28;8852;-86
2023/08/22 10:42:53;;;;;;;;;15.60;14.40;;;;;29.21;53.86;100267.59;4973203;28;8891;-86
2023/08/22 10:45:20;;;;;;;;;12.40;11.60;;;;;29.19;53.86;100269.72;4973074;28;8857;-86
2023/08/22 10:47:48;;;;;;;;;16.20;15.00;;;;;29.23;53.99;100265.47;4972987;28;8872;-86
2023/08/22 10:50:16;;;;;;;;;13.20;12.80;;;;;29.33;53.37;100264.88;4972783;28;8871;-86
2023/08/22 10:52:44;;;;;;;;;19.60;17.80;;;;;29.33;53.79;100265.72;4972225;28;8844;-86
2023/08/22 10:55:13;;;;;;;;;14.00;13.60;;;;;29.32;53.71;100269.53;4971407;28;8848;-86
2023/08/22 10:57:41;;;;;;;;;14.80;14.60;;;;;29.36;53.29;100264.41;4971211;28;9526;-86
2023/08/22 11:00:12;;;;;;;;;13.40;13.00;;;;;29.38;53.18;100254.88;4971634;28;8857;-86
2023/08/22 11:02:40;;;;;;;;;14.20;13.00;;;;;29.49;53.10;100251.31;4971475;28;8938;-86
2023/08/22 11:05:08;;;;;;;;;11.00;10.60;;;;;29.31;53.56;100256.03;4970000;28;9647;-86
2023/08/22 11:07:36;;;;;;;;;10.00;10.00;;;;;29.15;53.22;100260.31;4968794;28;8848;-86
2023/08/22 11:10:04;;;;;;;;;13.80;13.40;;;;;29.06;54.04;100261.69;4969174;28;8836;-86
2023/08/22 11:12:32;;;;;;;;;15.40;14.40;;;;;29.03;53.85;100264.06;4969350;28;8852;-85
2023/08/22 11:15:01;;;;;;;;;15.40;15.40;;;;;28.97;53.89;100265.84;4968466;28;9519;-86
2023/08/22 11:17:28;;;;;;;;;11.60;11.60;;;;;28.80;54.40;100275.75;4968552;28;9814;-86
2023/08/22 11:19:57;;;;;;;;;15.00;14.00;;;;;28.68;54.71;100272.09;4968473;28;9556;-86
2023/08/22 11:22:25;;;;;;;;;12.60;12.20;;;;;28.76;54.39;100268.22;4969803;28;8853;-86
2023/08/22 11:24:53;;;;;;;;;14.40;13.20;;;;;28.91;53.77;100268.66;4969948;28;9290;-86
2023/08/22 11:27:22;;;;;;;;;17.00;17.00;;;;;29.09;53.17;100263.97;4970693;28;8853;-86
2023/08/22 11:29:50;;;;;;;;;15.80;15.20;;;;;29.24;53.34;100264.38;4971495;28;8915;-86
2023/08/22 11:32:18;;;;;;;;;16.20;15.80;;;;;29.18;53.35;100276.28;4973301;28;8836;-85
2023/08/22 11:34:46;;;;;;;;;22.00;20.60;;;;;29.00;53.29;100268.13;4973686;28;8860;-85